createdAt,value
2022-08-26T00:01:56.575Z,13.55
2022-08-26T00:04:25.989Z,6.22
2022-08-26T00:06:56.819Z,7.30
2022-08-26T00:09:25.407Z,7.78
2022-08-26T00:11:54.264Z,11.88
2022-08-26T00:14:26.045Z,10.68
2022-08-26T00:16:57.092Z,7.72
2022-08-26T00:19:25.083Z,9.63
2022-08-26T00:21:52.409Z,13.88
2022-08-26T00:24:21.681Z,14.57
2022-08-26T00:26:50.029Z,12.18
2022-08-26T00:29:19.619Z,13.13
2022-08-26T00:31:48.869Z,12.75
2022-08-26T00:34:16.785Z,16.17
2022-08-26T00:36:47.827Z,16.02
2022-08-26T00:39:19.927Z,18.77
2022-08-26T00:41:47.867Z,21.23
2022-08-26T00:44:15.204Z,20.70
2022-08-26T00:46:48.531Z,22.35
2022-08-26T00:49:35.941Z,23.23
2022-08-26T00:52:06.945Z,29.50
2022-08-26T00:54:45.159Z,35.55
2022-08-26T00:57:16.773Z,31.95
2022-08-26T00:59:50.545Z,32.05
2022-08-26T01:02:21.193Z,35.85
2022-08-26T01:04:56.500Z,38.67
2022-08-26T01:07:26.236Z,39.45
2022-08-26T01:09:56.462Z,35.08
2022-08-26T01:12:28.199Z,41.08
2022-08-26T01:14:55.665Z,43.65
2022-08-26T01:17:23.097Z,41.88
2022-08-26T01:19:57.438Z,45.92
2022-08-26T01:23:01.462Z,39.50
2022-08-26T01:25:33.263Z,40.17
2022-08-26T01:28:05.784Z,45.28
2022-08-26T01:30:34.439Z,44.03
2022-08-26T01:33:06.711Z,46.15
2022-08-26T01:35:34.308Z,44.70
2022-08-26T01:38:02.297Z,49.95
2022-08-26T01:40:36.317Z,54.15
2022-08-26T01:43:07.107Z,49.97
2022-08-26T01:45:36.918Z,51.85
2022-08-26T01:48:11.644Z,47.97
2022-08-26T01:50:40.055Z,53.25
2022-08-26T01:53:11.067Z,48.67
2022-08-26T01:55:44.340Z,56.40
2022-08-26T01:58:44.429Z,44.15
2022-08-26T02:01:13.027Z,52.58
2022-08-26T02:04:07.314Z,47.67
2022-08-26T02:06:37.005Z,53.95
2022-08-26T02:09:05.646Z,40.25
2022-08-26T02:11:33.875Z,50.15
2022-08-26T02:14:10.972Z,52.25
2022-08-26T02:16:42.939Z,47.28
2022-08-26T02:19:25.241Z,48.83
2022-08-26T02:21:54.125Z,46.22
2022-08-26T02:24:24.669Z,47.30
2022-08-26T02:26:58.625Z,41.72
2022-08-26T02:29:32.812Z,46.88
2022-08-26T02:32:00.381Z,44.42
2022-08-26T02:34:32.069Z,46.58
2022-08-26T02:37:02.584Z,45.95
2022-08-26T02:39:31.922Z,43.03
2022-08-26T02:41:59.480Z,46.40
2022-08-26T02:44:27.430Z,44.40
2022-08-26T02:46:55.738Z,46.72
2022-08-26T02:49:24.186Z,43.58
2022-08-26T02:51:52.612Z,43.92
2022-08-26T02:54:21.401Z,39.38
2022-08-26T02:56:49.117Z,41.92
2022-08-26T02:59:16.583Z,44.40
2022-08-26T03:01:45.217Z,44.95
2022-08-26T03:04:16.030Z,44.40
2022-08-26T03:06:43.874Z,42.17
2022-08-26T03:09:19.974Z,39.28
2022-08-26T03:11:47.331Z,36.00
2022-08-26T03:14:15.155Z,41.08
2022-08-26T03:16:43.224Z,40.70
2022-08-26T03:19:11.366Z,38.45
2022-08-26T03:21:39.315Z,41.88
2022-08-26T03:24:06.845Z,38.72
2022-08-26T03:26:34.115Z,44.90
2022-08-26T03:29:19.848Z,42.85
2022-08-26T03:31:47.345Z,38.00
2022-08-26T03:34:15.418Z,42.17
2022-08-26T03:36:43.263Z,35.78
2022-08-26T03:39:11.976Z,43.25
2022-08-26T03:41:40.432Z,38.38
2022-08-26T03:44:11.734Z,48.35
2022-08-26T03:46:39.647Z,35.05
2022-08-26T03:49:07.505Z,48.72
2022-08-26T03:51:38.854Z,39.53
2022-08-26T03:54:08.298Z,41.85
2022-08-26T03:56:36.616Z,39.22
2022-08-26T03:59:04.957Z,43.92
2022-08-26T04:01:35.638Z,42.53
2022-08-26T04:04:03.792Z,39.33
2022-08-26T04:06:34.390Z,38.72
2022-08-26T04:09:11.358Z,35.50
2022-08-26T04:11:39.667Z,34.15
2022-08-26T04:14:10.490Z,39.22
2022-08-26T04:16:38.894Z,33.08
2022-08-26T04:19:06.573Z,39.90
2022-08-26T04:21:34.971Z,40.28
2022-08-26T04:24:03.574Z,34.63
2022-08-26T04:26:37.043Z,32.75
2022-08-26T04:29:09.614Z,30.20
2022-08-26T04:31:37.578Z,35.30
2022-08-26T04:34:06.263Z,35.17
2022-08-26T04:36:34.496Z,30.23
2022-08-26T04:39:03.861Z,33.83
2022-08-26T04:41:31.736Z,32.25
2022-08-26T04:43:59.249Z,35.33
2022-08-26T04:46:26.570Z,27.58
2022-08-26T04:48:54.217Z,29.27
2022-08-26T04:51:27.378Z,26.63
2022-08-26T04:53:57.417Z,28.25
2022-08-26T04:56:30.944Z,26.10
2022-08-26T04:58:58.439Z,24.00
2022-08-26T05:01:27.193Z,21.27
2022-08-26T05:03:54.807Z,21.65
2022-08-26T05:06:22.204Z,24.92
2022-08-26T05:08:49.656Z,23.27
2022-08-26T05:11:17.024Z,19.10
2022-08-26T05:13:45.662Z,25.38
2022-08-26T05:16:15.777Z,23.85
2022-08-26T05:18:44.338Z,27.17
2022-08-26T05:21:21.012Z,22.70
2022-08-26T05:23:51.291Z,25.52
2022-08-26T05:26:22.973Z,18.42
2022-08-26T05:28:54.969Z,21.98
2022-08-26T05:31:28.651Z,24.15
2022-08-26T05:33:57.573Z,21.05
2022-08-26T05:36:28.263Z,21.45
2022-08-26T05:38:57.358Z,19.33
2022-08-26T05:41:34.477Z,17.17
2022-08-26T05:44:07.564Z,19.77
2022-08-26T05:46:36.636Z,19.92
2022-08-26T05:49:05.801Z,22.15
2022-08-26T05:51:33.744Z,26.60
2022-08-26T05:54:06.852Z,14.90
2022-08-26T05:56:34.137Z,22.02
2022-08-26T05:59:02.629Z,16.65
2022-08-26T06:01:35.857Z,20.77
2022-08-26T06:04:03.569Z,14.70
2022-08-26T06:06:33.599Z,18.58
2022-08-26T06:09:05.438Z,18.73
2022-08-26T06:11:33.364Z,18.35
2022-08-26T06:14:04.434Z,21.00
2022-08-26T06:16:34.869Z,14.70
2022-08-26T06:19:10.421Z,15.02
2022-08-26T06:21:41.708Z,18.98
2022-08-26T06:24:31.355Z,15.20
2022-08-26T06:27:01.905Z,14.95
2022-08-26T06:29:33.700Z,17.08
2022-08-26T06:32:02.939Z,16.13
2022-08-26T06:34:30.917Z,12.80
2022-08-26T06:37:02.404Z,11.48
2022-08-26T06:39:30.800Z,20.95
2022-08-26T06:42:03.021Z,15.35
2022-08-26T06:44:34.742Z,17.83
2022-08-26T06:47:02.193Z,18.75
2022-08-26T06:49:29.521Z,12.23
2022-08-26T06:51:59.996Z,16.65
2022-08-26T06:54:30.234Z,17.75
2022-08-26T06:56:57.904Z,18.27
2022-08-26T06:59:25.728Z,13.07
2022-08-26T07:01:53.405Z,13.30
2022-08-26T07:04:23.239Z,21.65
2022-08-26T07:06:53.537Z,16.85
2022-08-26T07:09:27.078Z,14.35
2022-08-26T07:11:58.732Z,19.85
2022-08-26T07:14:26.609Z,19.75
2022-08-26T07:16:54.237Z,18.10
2022-08-26T07:19:30.147Z,14.30
2022-08-26T07:22:01.769Z,17.63
2022-08-26T07:24:29.754Z,14.25
2022-08-26T07:27:02.791Z,12.30
2022-08-26T07:29:30.610Z,14.90
2022-08-26T07:31:58.188Z,10.52
2022-08-26T07:34:26.221Z,12.38
2022-08-26T07:36:53.684Z,16.08
2022-08-26T07:39:24.116Z,13.52
2022-08-26T07:41:52.679Z,17.38
2022-08-26T07:44:20.972Z,15.88
2022-08-26T07:46:52.292Z,17.60
2022-08-26T07:49:26.715Z,13.63
2022-08-26T07:51:55.499Z,17.17
2022-08-26T07:54:26.842Z,17.35
2022-08-26T07:56:55.895Z,15.77
2022-08-26T07:59:24.082Z,15.07
2022-08-26T08:01:51.594Z,15.77
2022-08-26T08:04:26.184Z,23.80
2022-08-26T08:06:55.020Z,18.63
2022-08-26T08:09:23.167Z,17.50
2022-08-26T08:11:52.952Z,17.20
2022-08-26T08:14:22.031Z,14.70
2022-08-26T08:16:51.270Z,17.80
2022-08-26T08:19:23.846Z,17.45
2022-08-26T08:21:51.516Z,17.98
2022-08-26T08:24:19.774Z,12.55
2022-08-26T08:26:47.899Z,11.23
2022-08-26T08:29:15.227Z,12.82
2022-08-26T08:31:56.676Z,16.15
2022-08-26T08:34:28.625Z,14.82
2022-08-26T08:36:57.541Z,12.95
2022-08-26T08:39:26.264Z,15.02
2022-08-26T08:42:08.875Z,15.40
2022-08-26T08:44:41.773Z,21.20
2022-08-26T08:47:25.516Z,14.90
2022-08-26T08:49:58.356Z,13.40
2022-08-26T08:52:35.045Z,13.57
2022-08-26T08:55:04.237Z,12.90
2022-08-26T08:58:05.678Z,11.55
2022-08-26T09:00:46.497Z,11.27
2022-08-26T09:03:47.547Z,12.23
2022-08-26T09:06:18.808Z,15.02
2022-08-26T09:08:50.530Z,12.38
2022-08-26T09:11:19.716Z,13.82
2022-08-26T09:13:52.450Z,11.18
2022-08-26T09:17:01.390Z,8.65
2022-08-26T09:19:32.784Z,18.42
2022-08-26T09:22:04.611Z,15.07
2022-08-26T09:24:42.144Z,11.95
2022-08-26T09:27:40.675Z,10.25
2022-08-26T09:30:11.429Z,11.32
2022-08-26T09:32:39.882Z,8.73
2022-08-26T09:35:23.463Z,9.85
2022-08-26T09:40:29.160Z,14.00
2022-08-26T09:43:22.001Z,9.10
2022-08-26T09:45:58.455Z,11.48
2022-08-26T09:48:36.335Z,11.05
2022-08-26T09:51:07.824Z,10.50
2022-08-26T09:53:50.768Z,8.93
2022-08-26T09:56:25.399Z,9.90
2022-08-26T09:58:53.586Z,8.82
2022-08-26T10:01:23.674Z,8.77
2022-08-26T10:03:51.779Z,11.95
2022-08-26T10:06:21.607Z,10.43
2022-08-26T10:08:55.533Z,11.45
2022-08-26T10:11:42.478Z,9.93
2022-08-26T10:14:15.615Z,10.50
2022-08-26T10:16:56.408Z,10.00
2022-08-26T10:19:56.062Z,9.73
2022-08-26T10:22:49.019Z,8.07
2022-08-26T10:25:33.003Z,12.98
2022-08-26T10:28:12.091Z,7.93
2022-08-26T10:31:01.356Z,10.40
2022-08-26T10:33:28.784Z,7.60
2022-08-26T10:36:01.329Z,8.95
2022-08-26T10:38:38.313Z,11.98
2022-08-26T10:41:18.181Z,6.30
2022-08-26T10:43:54.918Z,11.40
2022-08-26T10:46:27.113Z,9.73
2022-08-26T10:49:09.449Z,8.07
2022-08-26T10:51:47.471Z,8.88
2022-08-26T10:54:26.499Z,8.13
2022-08-26T10:57:17.128Z,12.85
2022-08-26T11:00:34.615Z,8.90
2022-08-26T11:03:41.517Z,8.13
2022-08-26T11:06:22.913Z,12.02
2022-08-26T11:08:57.131Z,6.95
2022-08-26T11:11:39.646Z,8.50
2022-08-26T11:14:28.408Z,7.43
2022-08-26T11:16:58.728Z,5.32
2022-08-26T11:20:00.214Z,6.70
2022-08-26T11:22:36.348Z,7.70
2022-08-26T11:25:15.463Z,8.85
2022-08-26T11:27:54.297Z,8.43
2022-08-26T11:30:23.060Z,4.85
2022-08-26T11:32:59.073Z,6.78
2022-08-26T11:35:27.125Z,8.40
2022-08-26T11:37:58.878Z,5.65
2022-08-26T11:40:30.271Z,6.05
2022-08-26T11:43:02.623Z,6.80
2022-08-26T11:45:39.351Z,5.85
2022-08-26T11:48:20.997Z,5.10
2022-08-26T11:51:04.032Z,4.68
2022-08-26T11:53:37.080Z,7.32
2022-08-26T11:56:09.126Z,9.93
2022-08-26T11:58:44.926Z,7.28
2022-08-26T12:01:23.935Z,6.55
2022-08-26T12:03:53.295Z,6.65
2022-08-26T12:06:29.553Z,11.10
2022-08-26T12:09:02.664Z,8.77
2022-08-26T12:11:34.215Z,7.13
2022-08-26T12:14:24.188Z,5.03
2022-08-26T12:16:53.989Z,8.05
2022-08-26T12:19:32.649Z,5.93
2022-08-26T12:22:15.455Z,5.93
2022-08-26T12:24:47.583Z,5.28
2022-08-26T12:27:26.101Z,14.18
2022-08-26T12:30:12.231Z,6.82
2022-08-26T12:32:55.118Z,4.65
2022-08-26T12:35:25.976Z,14.07
2022-08-26T12:37:54.292Z,6.15
2022-08-26T12:40:35.413Z,5.82
2022-08-26T12:43:06.089Z,7.07
2022-08-26T12:45:58.387Z,5.50
2022-08-26T12:48:35.970Z,5.60
2022-08-26T12:51:06.656Z,8.15
2022-08-26T12:53:40.794Z,4.45
2022-08-26T12:56:30.333Z,6.03
2022-08-26T12:59:07.490Z,6.18
2022-08-26T13:01:43.714Z,8.85
2022-08-26T13:04:38.085Z,4.72
2022-08-26T13:07:14.439Z,8.05
2022-08-26T13:09:41.678Z,8.07
2022-08-26T13:12:11.584Z,8.25
2022-08-26T13:14:40.482Z,5.57
2022-08-26T13:17:07.854Z,7.93
2022-08-26T13:19:35.813Z,5.43
2022-08-26T13:22:04.319Z,9.07
2022-08-26T13:24:38.539Z,9.13
2022-08-26T13:27:07.458Z,8.27
2022-08-26T13:29:34.769Z,11.77
2022-08-26T13:32:03.291Z,5.38
2022-08-26T13:34:31.495Z,10.48
2022-08-26T13:36:59.165Z,7.35
2022-08-26T13:39:26.996Z,4.88
2022-08-26T13:41:54.341Z,8.18
2022-08-26T13:44:21.728Z,3.95
2022-08-26T13:46:49.163Z,6.78
2022-08-26T13:49:16.578Z,6.45
2022-08-26T13:51:44.135Z,6.70
2022-08-26T13:54:11.419Z,6.95
2022-08-26T13:56:38.683Z,5.20
2022-08-26T13:59:06.547Z,3.88
2022-08-26T14:01:35.033Z,8.65
2022-08-26T14:04:03.137Z,5.50
2022-08-26T14:06:30.721Z,7.07
2022-08-26T14:08:59.060Z,5.75
2022-08-26T14:11:26.878Z,6.53
2022-08-26T14:13:54.302Z,4.10
2022-08-26T14:16:27.028Z,6.93
2022-08-26T14:18:54.799Z,10.20
2022-08-26T14:21:23.455Z,10.63
2022-08-26T14:23:50.773Z,4.75
2022-08-26T14:26:27.940Z,6.03
2022-08-26T14:28:58.921Z,4.13
2022-08-26T14:31:29.021Z,4.32
2022-08-26T14:34:03.272Z,5.28
2022-08-26T14:36:33.348Z,6.70
2022-08-26T14:39:08.094Z,5.68
2022-08-26T14:41:40.935Z,6.55
2022-08-26T14:44:12.379Z,5.28
2022-08-26T14:46:45.778Z,8.35
2022-08-26T14:49:13.725Z,4.22
2022-08-26T14:51:41.280Z,3.03
2022-08-26T14:54:12.973Z,2.40
2022-08-26T14:56:51.432Z,6.25
2022-08-26T14:59:22.235Z,6.32
2022-08-26T15:01:49.795Z,6.93
2022-08-26T15:04:17.823Z,3.88
2022-08-26T15:06:45.267Z,8.23
2022-08-26T15:09:12.811Z,9.45
2022-08-26T15:11:40.588Z,4.35
2022-08-26T15:14:08.581Z,6.32
2022-08-26T15:16:51.575Z,5.40
2022-08-26T15:19:19.837Z,5.63
2022-08-26T15:21:47.592Z,7.57
2022-08-26T15:24:17.372Z,7.03
2022-08-26T15:26:45.377Z,5.50
2022-08-26T15:29:13.211Z,7.28
2022-08-26T15:31:40.773Z,8.57
2022-08-26T15:34:14.552Z,4.90
2022-08-26T15:36:46.229Z,7.63
2022-08-26T15:39:15.172Z,4.97
2022-08-26T15:41:42.518Z,4.47
2022-08-26T15:44:10.101Z,5.07
2022-08-26T15:46:38.623Z,5.38
2022-08-26T15:49:06.995Z,4.60
2022-08-26T15:51:45.377Z,6.07
2022-08-26T15:54:13.335Z,8.32
2022-08-26T15:56:40.599Z,8.13
2022-08-26T15:59:08.347Z,3.20
2022-08-26T16:01:38.561Z,6.85
2022-08-26T16:04:07.034Z,6.93
2022-08-26T16:06:37.305Z,8.55
2022-08-26T16:09:05.858Z,3.97
2022-08-26T16:11:35.829Z,7.70
2022-08-26T16:14:07.554Z,10.65
2022-08-26T16:16:44.590Z,5.97
2022-08-26T16:19:11.885Z,5.55
2022-08-26T16:21:40.463Z,6.45
2022-08-26T16:24:08.293Z,4.10
2022-08-26T16:26:37.133Z,8.82
2022-08-26T16:29:08.485Z,11.57
2022-08-26T16:31:38.093Z,7.15
2022-08-26T16:34:06.859Z,4.00
2022-08-26T16:36:35.875Z,5.68
2022-08-26T16:39:05.594Z,6.70
2022-08-26T16:41:36.196Z,5.78
2022-08-26T16:44:04.895Z,5.85
2022-08-26T16:46:33.525Z,4.57
2022-08-26T16:49:04.272Z,7.30
2022-08-26T16:51:37.746Z,7.32
2022-08-26T16:54:07.238Z,4.85
2022-08-26T16:56:35.107Z,5.28
2022-08-26T16:59:04.878Z,3.58
2022-08-26T17:01:32.583Z,6.90
2022-08-26T17:04:00.075Z,4.57
2022-08-26T17:06:27.413Z,4.45
2022-08-26T17:08:54.693Z,6.03
2022-08-26T17:11:21.922Z,8.15
2022-08-26T17:13:49.231Z,4.63
2022-08-26T17:16:16.712Z,7.53
2022-08-26T17:18:44.189Z,8.90
2022-08-26T17:21:13.429Z,4.50
2022-08-26T17:23:42.184Z,5.88
2022-08-26T17:26:11.974Z,7.55
2022-08-26T17:28:40.595Z,5.38
2022-08-26T17:31:09.625Z,2.92
2022-08-26T17:33:38.082Z,4.45
2022-08-26T17:36:07.425Z,8.68
2022-08-26T17:38:36.488Z,3.30
2022-08-26T17:41:08.747Z,6.93
2022-08-26T17:43:36.848Z,3.30
2022-08-26T17:46:07.738Z,8.93
2022-08-26T17:48:37.022Z,7.50
2022-08-26T17:51:12.898Z,6.88
2022-08-26T17:53:41.294Z,7.15
2022-08-26T17:56:11.366Z,4.70
2022-08-26T17:58:39.805Z,4.93
2022-08-26T18:01:07.300Z,5.43
2022-08-26T18:03:35.458Z,4.95
2022-08-26T18:06:08.114Z,6.50
2022-08-26T18:08:35.532Z,4.68
2022-08-26T18:11:03.177Z,4.88
2022-08-26T18:13:30.576Z,5.07
2022-08-26T18:15:57.957Z,4.75
2022-08-26T18:18:25.278Z,3.83
2022-08-26T18:21:01.308Z,5.75
2022-08-26T18:23:31.312Z,2.78
2022-08-26T18:25:58.859Z,4.82
2022-08-26T18:28:26.267Z,3.58
2022-08-26T18:30:53.591Z,5.95
2022-08-26T18:33:24.295Z,7.38
2022-08-26T18:35:52.677Z,3.10
2022-08-26T18:38:20.032Z,19.70
2022-08-26T18:40:49.788Z,6.40
2022-08-26T18:43:17.225Z,5.60
2022-08-26T18:45:44.846Z,4.18
2022-08-26T18:48:12.516Z,3.28
2022-08-26T18:50:42.337Z,7.82
2022-08-26T18:53:11.179Z,6.32
2022-08-26T18:55:38.485Z,7.53
2022-08-26T18:58:05.779Z,14.02
2022-08-26T19:00:33.321Z,4.95
2022-08-26T19:03:00.904Z,6.57
2022-08-26T19:05:28.495Z,4.35
2022-08-26T19:07:56.549Z,5.30
2022-08-26T19:10:24.927Z,3.83
2022-08-26T19:12:57.476Z,4.78
2022-08-26T19:15:39.269Z,6.07
2022-08-26T19:18:08.810Z,2.03
2022-08-26T19:20:46.621Z,8.82
2022-08-26T19:23:30.882Z,7.40
2022-08-26T19:26:03.484Z,5.88
2022-08-26T19:28:32.574Z,5.25
2022-08-26T19:31:00.113Z,3.65
2022-08-26T19:33:28.260Z,2.78
2022-08-26T19:35:56.129Z,3.20
2022-08-26T19:38:24.069Z,4.22
2022-08-26T19:40:51.580Z,5.43
2022-08-26T19:43:18.926Z,7.00
2022-08-26T19:45:47.618Z,3.47
2022-08-26T19:48:15.195Z,3.63
2022-08-26T19:50:42.560Z,6.82
2022-08-26T19:53:10.177Z,3.88
2022-08-26T19:55:37.777Z,7.18
2022-08-26T19:58:06.448Z,8.13
2022-08-26T20:00:35.684Z,4.53
2022-08-26T20:03:03.312Z,2.58
2022-08-26T20:05:30.673Z,5.13
2022-08-26T20:07:58.040Z,6.65
2022-08-26T20:10:25.499Z,3.05
2022-08-26T20:12:53.418Z,4.00
2022-08-26T20:15:22.054Z,7.30
2022-08-26T20:17:49.775Z,2.92
2022-08-26T20:20:35.497Z,6.18
2022-08-26T20:23:04.490Z,4.30
2022-08-26T20:25:33.047Z,3.78
2022-08-26T20:28:00.746Z,3.30
2022-08-26T20:30:30.413Z,4.10
2022-08-26T20:32:59.025Z,7.25
2022-08-26T20:35:26.620Z,4.38
2022-08-26T20:37:54.089Z,6.15
2022-08-26T20:40:22.574Z,2.78
2022-08-26T20:42:49.952Z,5.15
2022-08-26T20:45:17.219Z,4.07
2022-08-26T20:47:44.483Z,3.55
2022-08-26T20:50:11.870Z,5.32
2022-08-26T20:52:39.300Z,5.00
2022-08-26T20:55:06.962Z,4.45
2022-08-26T20:57:34.341Z,4.38
2022-08-26T21:00:01.995Z,2.00
2022-08-26T21:02:29.642Z,2.33
2022-08-26T21:04:59.138Z,6.00
2022-08-26T21:07:26.562Z,3.15
2022-08-26T21:09:53.878Z,3.03
2022-08-26T21:12:21.449Z,2.33
2022-08-26T21:14:51.995Z,2.67
2022-08-26T21:17:19.250Z,4.38
2022-08-26T21:19:46.645Z,3.63
2022-08-26T21:22:24.117Z,3.75
2022-08-26T21:24:52.199Z,5.28
2022-08-26T21:27:26.609Z,4.93
2022-08-26T21:30:06.015Z,4.68
2022-08-26T21:32:46.938Z,7.85
2022-08-26T21:35:17.759Z,5.70
2022-08-26T21:37:45.239Z,4.65
2022-08-26T21:40:13.563Z,6.82
2022-08-26T21:42:40.936Z,6.53
2022-08-26T21:45:08.488Z,5.05
2022-08-26T21:47:36.438Z,3.92
2022-08-26T21:50:04.325Z,4.72
2022-08-26T21:52:34.509Z,4.05
2022-08-26T21:55:03.458Z,5.72
2022-08-26T21:57:41.836Z,5.97
2022-08-26T22:00:13.050Z,8.98
2022-08-26T22:02:40.600Z,7.57
2022-08-26T22:05:08.331Z,6.20
2022-08-26T22:07:35.852Z,9.13
2022-08-26T22:10:04.590Z,8.25
2022-08-26T22:12:49.994Z,12.45
2022-08-26T22:15:23.133Z,13.77
2022-08-26T22:17:50.478Z,14.73
2022-08-26T22:20:17.856Z,11.55
2022-08-26T22:22:45.738Z,11.65
2022-08-26T22:25:13.407Z,14.52
2022-08-26T22:27:42.875Z,11.65
2022-08-26T22:30:11.782Z,15.32
2022-08-26T22:32:40.273Z,12.85
2022-08-26T22:35:28.304Z,17.80
2022-08-26T22:37:55.209Z,18.95
2022-08-26T22:40:24.836Z,21.15
2022-08-26T22:42:57.854Z,23.52
2022-08-26T22:45:26.141Z,18.70
2022-08-26T22:47:58.949Z,16.58
2022-08-26T22:50:26.842Z,19.73
2022-08-26T22:52:54.238Z,24.35
2022-08-26T22:55:21.533Z,21.02
2022-08-26T22:57:48.885Z,23.73
2022-08-26T23:00:16.400Z,18.52
2022-08-26T23:02:43.721Z,14.93
2022-08-26T23:05:11.537Z,10.32
2022-08-26T23:07:39.164Z,12.85
2022-08-26T23:10:08.364Z,8.63
2022-08-26T23:12:37.686Z,7.95
2022-08-26T23:15:08.199Z,6.95
2022-08-26T23:17:36.419Z,9.40
2022-08-26T23:20:07.775Z,5.20
2022-08-26T23:22:35.465Z,8.55
2022-08-26T23:25:07.658Z,7.70
2022-08-26T23:27:37.432Z,6.63
2022-08-26T23:30:07.924Z,8.13
2022-08-26T23:32:35.267Z,7.35
2022-08-26T23:35:02.783Z,4.65
2022-08-26T23:37:35.916Z,7.15
2022-08-26T23:40:10.094Z,5.97
2022-08-26T23:42:37.478Z,6.50
2022-08-26T23:45:06.729Z,4.55
2022-08-26T23:47:34.132Z,6.07
2022-08-26T23:50:01.667Z,3.40
2022-08-26T23:52:47.644Z,4.57
2022-08-26T23:55:15.339Z,5.32
2022-08-26T23:57:43.005Z,4.57
